Time;durP1;ratioP1;P1;durP2;ratioP2;P2;SDS_P1;SDS_P2;PMS_P1;PMS_P2;Temp;Humidity;BMP_temperature;BMP_pressure;BME280_temperature;BME280_humidity;BME280_pressure;Samples;Min_cycle;Max_cycle;Signal;HPM_P1;HPM_P2
2023/01/30 00:03:33;;;;;;;11.57;8.50;;;;;;;-2.15;68.12;97944.63;10515626;28;20405;-76
2023/01/30 00:08:54;;;;;;;12.60;7.80;;;;;;;-2.22;68.82;97933.47;10517737;28;20119;-76
2023/01/30 00:14:15;;;;;;;12.10;7.50;;;;;;;-2.20;68.76;97912.59;10531651;28;20036;-77
2023/01/30 00:19:35;;;;;;;13.27;8.80;;;;;;;-2.22;68.63;97900.66;10516815;28;20513;-76
2023/01/30 00:24:56;;;;;;;12.25;7.97;;;;;;;-2.24;69.21;97898.44;10531228;28;20048;-76
2023/01/30 00:30:17;;;;;;;14.98;9.27;;;;;;;-2.12;69.37;97916.28;10516685;28;20062;-76
2023/01/30 00:35:45;;;;;;;15.27;8.93;;;;;;;-2.04;69.16;97886.38;10516852;28;20038;-76
2023/01/30 00:41:06;;;;;;;14.95;9.07;;;;;;;-1.94;69.42;97886.81;10548592;28;20401;-76
2023/01/30 00:52:12;;;;;;;13.77;8.67;;;;;;;-1.79;68.51;97870.81;10558181;28;20067;-76
2023/01/30 00:57:32;;;;;;;14.32;8.57;;;;;;;-1.82;68.54;97866.38;10538412;28;20043;-76
2023/01/30 01:02:53;;;;;;;14.27;9.73;;;;;;;-1.78;68.55;97866.81;10524098;28;20052;-76
2023/01/30 01:08:14;;;;;;;14.00;8.02;;;;;;;-1.78;68.56;97861.34;10538260;28;20050;-76
2023/01/30 01:13:34;;;;;;;11.77;8.00;;;;;;;-1.81;68.62;97867.84;10524266;28;20180;-76
2023/01/30 01:18:55;;;;;;;12.60;8.02;;;;;;;-1.88;68.97;97873.88;10524720;28;20040;-76
2023/01/30 01:24:16;;;;;;;13.15;8.32;;;;;;;-1.88;68.77;97851.97;10537973;28;20043;-76
2023/01/30 01:29:37;;;;;;;13.57;7.82;;;;;;;-1.87;69.32;97861.66;10537951;28;20040;-76
2023/01/30 01:34:57;;;;;;;13.85;8.38;;;;;;;-1.91;69.11;97861.22;10523738;28;20039;-76
2023/01/30 01:46:21;;;;;;;11.32;7.30;;;;;;;-1.86;69.04;97854.94;10557654;28;20078;-76
2023/01/30 01:51:46;;;;;;;13.63;8.20;;;;;;;-1.85;69.07;97848.22;10539844;28;20044;-76
2023/01/30 01:57:11;;;;;;;13.20;7.63;;;;;;;-1.90;69.02;97844.28;10537661;28;20040;-76
2023/01/30 02:02:32;;;;;;;11.52;7.18;;;;;;;-1.89;69.18;97834.06;10537430;28;20105;-76
2023/01/30 02:08:28;;;;;;;11.95;7.43;;;;;;;-1.89;69.35;97815.66;10537311;28;20050;-76
2023/01/30 02:13:49;;;;;;;11.93;8.10;;;;;;;-1.93;69.31;97809.72;10514649;28;20229;-76
2023/01/30 02:19:23;;;;;;;13.18;8.00;;;;;;;-1.96;69.19;97810.00;10559906;28;20487;-76
2023/01/30 02:24:50;;;;;;;13.15;8.55;;;;;;;-1.85;69.68;97779.81;10543939;28;20039;-76
2023/01/30 02:30:11;;;;;;;11.63;7.97;;;;;;;-1.61;69.20;97763.44;10571863;28;20070;-76
2023/01/30 02:35:38;;;;;;;11.70;8.05;;;;;;;-1.43;69.19;97753.81;10571722;28;20070;-76
2023/01/30 02:41:26;;;;;;;13.90;8.55;;;;;;;-1.31;68.31;97729.78;10571660;28;20546;-76
2023/01/30 02:47:20;;;;;;;10.90;7.50;;;;;;;-1.38;68.37;97716.66;10571425;28;20039;-76
2023/01/30 02:52:41;;;;;;;13.50;8.73;;;;;;;-1.37;67.97;97718.13;10543035;28;20044;-76
2023/01/30 02:58:03;;;;;;;14.15;8.18;;;;;;;-1.32;68.56;97698.19;10556959;28;20116;-76
2023/01/30 03:03:40;;;;;;;13.93;8.50;;;;;;;-1.27;67.78;97687.13;10529084;28;20068;-76
2023/01/30 03:09:37;;;;;;;14.20;8.20;;;;;;;-1.43;67.66;97646.28;10542945;28;20042;-76
2023/01/30 03:15:02;;;;;;;14.52;8.65;;;;;;;-1.50;67.50;97664.03;10475323;28;20498;-76
2023/01/30 03:20:23;;;;;;;15.02;8.90;;;;;;;-1.62;67.97;97660.66;10528622;28;20059;-76
2023/01/30 03:25:44;;;;;;;14.52;8.85;;;;;;;-1.60;68.31;97674.56;10541907;28;20044;-76
2023/01/30 03:31:06;;;;;;;13.90;8.75;;;;;;;-1.42;68.24;97721.69;10541608;28;20048;-76
2023/01/30 03:36:27;;;;;;;14.40;9.05;;;;;;;-1.27;67.42;97727.47;10541780;28;20039;-76
2023/01/30 03:41:49;;;;;;;12.07;7.97;;;;;;;-1.16;67.85;97697.22;10541181;28;20051;-76
2023/01/30 03:47:11;;;;;;;15.07;8.98;;;;;;;-1.13;67.63;97701.69;10523855;28;20071;-77
2023/01/30 03:52:35;;;;;;;14.98;8.45;;;;;;;-1.06;67.39;97709.31;10516655;28;20454;-77
2023/01/30 03:57:57;;;;;;;13.10;8.93;;;;;;;-1.05;66.93;97683.41;10504691;28;20046;-77
2023/01/30 04:03:22;;;;;;;13.18;8.77;;;;;;;-1.17;67.15;97663.59;10540467;28;20086;-76
2023/01/30 04:08:46;;;;;;;14.77;9.30;;;;;;;-1.08;66.74;97646.06;10540772;28;20070;-76
2023/01/30 04:14:22;;;;;;;16.00;9.30;;;;;;;-1.08;67.28;97617.94;10555644;28;20051;-76
2023/01/30 04:20:19;;;;;;;14.98;8.95;;;;;;;-1.02;67.35;97619.34;10552535;28;20040;-76
2023/01/30 04:25:58;;;;;;;12.77;8.43;;;;;;;-0.89;67.12;97580.28;10547324;28;20066;-77
2023/01/30 04:31:28;;;;;;;13.90;8.95;;;;;;;-0.89;67.17;97559.09;10555862;28;20426;-76
2023/01/30 04:37:06;;;;;;;15.27;9.98;;;;;;;-0.83;66.29;97555.53;10542878;28;20054;-76
2023/01/30 04:42:39;;;;;;;18.90;10.07;;;;;;;-0.83;66.70;97547.31;10524866;28;20508;-76
2023/01/30 04:48:23;;;;;;;14.07;9.02;;;;;;;-0.84;66.97;97526.66;10559970;28;20377;-76
2023/01/30 04:53:44;;;;;;;16.73;9.93;;;;;;;-0.77;67.32;97553.44;10538368;28;20385;-77
2023/01/30 04:59:12;;;;;;;13.40;8.13;;;;;;;-0.73;67.35;97548.41;10542375;28;20089;-76
2023/01/30 05:04:37;;;;;;;16.00;9.70;;;;;;;-0.67;67.10;97568.25;10524122;28;20485;-76
2023/01/30 05:09:58;;;;;;;20.60;9.50;;;;;;;-0.62;67.06;97554.44;10537402;28;20035;-76
2023/01/30 05:15:19;;;;;;;16.33;9.18;;;;;;;-0.55;66.94;97568.81;10537063;28;20047;-76
2023/01/30 05:20:40;;;;;;;14.23;8.05;;;;;;;-0.54;67.50;97549.09;10552326;28;20054;-76
2023/01/30 05:26:01;;;;;;;13.80;8.68;;;;;;;-0.54;67.68;97546.34;10537622;28;20047;-76
2023/01/30 05:31:22;;;;;;;14.48;8.93;;;;;;;-0.49;67.71;97539.28;10520727;28;20082;-76
2023/01/30 05:36:44;;;;;;;16.58;8.82;;;;;;;-0.48;67.66;97538.00;10548646;28;20093;-76
2023/01/30 05:42:06;;;;;;;14.07;8.95;;;;;;;-0.45;67.99;97532.22;10510607;28;20048;-76
2023/01/30 05:47:27;;;;;;;14.48;9.15;;;;;;;-0.37;68.12;97518.63;10526656;28;20444;-77
2023/01/30 05:52:48;;;;;;;14.00;7.68;;;;;;;-0.32;68.31;97493.09;10553273;28;20043;-76
2023/01/30 05:58:09;;;;;;;14.13;8.95;;;;;;;-0.26;68.37;97487.50;10531144;28;20044;-77
2023/01/30 06:03:30;;;;;;;13.80;8.13;;;;;;;-0.17;68.39;97493.31;10531028;28;20063;-76
2023/01/30 06:08:52;;;;;;;11.70;7.50;;;;;;;-0.12;68.55;97478.75;10530140;28;20043;-77
2023/01/30 06:14:13;;;;;;;12.70;8.50;;;;;;;-0.11;68.68;97441.78;10544863;28;20044;-76
2023/01/30 06:19:34;;;;;;;13.55;8.30;;;;;;;-0.15;68.90;97424.19;10522706;28;20035;-76
2023/01/30 06:24:55;;;;;;;14.43;8.77;;;;;;;-0.12;68.76;97431.34;10552478;28;20035;-74
2023/01/30 06:30:16;;;;;;;12.18;7.60;;;;;;;-0.11;69.20;97408.13;10553276;28;20035;-76
2023/01/30 06:35:37;;;;;;;13.65;8.50;;;;;;;-0.02;68.94;97429.66;10556355;28;20032;-77
2023/01/30 06:40:58;;;;;;;13.38;8.45;;;;;;;-0.03;68.96;97420.69;10553224;28;20112;-76
2023/01/30 06:46:19;;;;;;;12.65;6.90;;;;;;;-0.03;69.06;97406.97;10556108;28;20044;-76
2023/01/30 06:51:39;;;;;;;13.35;7.32;;;;;;;0.05;69.74;97393.34;10555894;28;20136;-77
2023/01/30 06:57:00;;;;;;;11.02;7.03;;;;;;;0.14;69.98;97394.88;10541862;28;20067;-77
2023/01/30 07:02:21;;;;;;;10.93;6.13;;;;;;;0.23;69.76;97392.44;10541100;28;20494;-77
2023/01/30 07:07:42;;;;;;;11.38;6.75;;;;;;;0.27;70.52;97379.09;10542226;28;20404;-77
2023/01/30 07:13:03;;;;;;;9.70;6.45;;;;;;;0.37;70.36;97379.38;10543272;28;20374;-78
2023/01/30 07:18:24;;;;;;;9.73;6.43;;;;;;;0.41;70.82;97329.63;10539889;28;20431;-79
2023/01/30 07:23:45;;;;;;;10.05;6.82;;;;;;;0.47;70.83;97357.69;10539789;28;20047;-78
2023/01/30 07:29:06;;;;;;;10.32;6.20;;;;;;;0.66;70.68;97344.47;10539621;28;20036;-79
2023/01/30 07:34:28;;;;;;;9.45;5.88;;;;;;;0.76;70.20;97320.00;10543186;28;20031;-78
2023/01/30 07:39:49;;;;;;;8.13;5.78;;;;;;;1.02;70.09;97286.09;10554126;28;20048;-78
2023/01/30 07:45:12;;;;;;;9.37;5.93;;;;;;;1.10;69.85;97270.38;10553181;28;20100;-79
2023/01/30 07:50:33;;;;;;;8.95;5.90;;;;;;;2.14;70.32;97311.09;10554560;28;20285;-79
2023/01/30 07:55:54;;;;;;;9.40;6.57;;;;;;;5.57;61.84;97292.03;10523844;28;20036;-76
2023/01/30 08:01:15;;;;;;;8.45;5.68;;;;;;;4.02;61.35;97309.06;10525886;28;20040;-76
2023/01/30 08:06:38;;;;;;;7.70;5.47;;;;;;;2.81;64.17;97297.88;10522984;28;20131;-76
2023/01/30 08:11:59;;;;;;;9.30;5.50;;;;;;;2.01;65.97;97298.22;10525235;28;20532;-76
2023/01/30 08:17:20;;;;;;;7.85;5.07;;;;;;;1.59;67.12;97286.00;10512053;28;20040;-78
2023/01/30 08:22:42;;;;;;;7.88;4.78;;;;;;;1.42;67.62;97289.22;10512211;28;20516;-77
2023/01/30 08:28:03;;;;;;;9.82;5.53;;;;;;;1.27;68.10;97303.66;10525823;28;20493;-77
2023/01/30 08:33:24;;;;;;;8.70;5.28;;;;;;;1.26;69.00;97328.94;10511520;28;20094;-77
2023/01/30 08:38:45;;;;;;;7.05;4.55;;;;;;;1.32;68.77;97291.75;10511451;28;20051;-77
2023/01/30 08:44:06;;;;;;;9.43;4.43;;;;;;;1.36;68.95;97272.16;10511222;28;20111;-77
2023/01/30 08:49:26;;;;;;;7.60;4.53;;;;;;;1.41;69.80;97277.50;10511122;28;20408;-76
2023/01/30 08:54:47;;;;;;;7.00;4.93;;;;;;;1.37;71.08;97266.13;10524772;28;20040;-76
2023/01/30 09:00:09;;;;;;;6.43;4.15;;;;;;;1.40;70.41;97265.03;10510781;28;20051;-76
2023/01/30 09:05:30;;;;;;;5.97;3.85;;;;;;;1.39;71.14;97251.81;10510868;28;20048;-76
2023/01/30 09:10:57;;;;;;;7.82;4.75;;;;;;;1.47;71.28;97241.59;10534538;28;20230;-78
2023/01/30 09:16:17;;;;;;;6.63;4.63;;;;;;;1.58;70.83;97240.50;10531049;28;20047;-78
2023/01/30 09:21:40;;;;;;;7.32;4.38;;;;;;;1.81;70.39;97255.03;10530560;28;20071;-78
2023/01/30 09:27:02;;;;;;;8.05;4.95;;;;;;;2.06;70.40;97232.53;10539592;28;20060;-78
2023/01/30 09:32:22;;;;;;;6.05;4.05;;;;;;;2.62;69.59;97247.94;10530789;28;20081;-77
2023/01/30 09:37:48;;;;;;;6.22;4.18;;;;;;;3.24;67.82;97243.72;10565812;28;20039;-77
2023/01/30 09:43:14;;;;;;;5.28;3.90;;;;;;;3.49;66.40;97248.59;10532187;28;20044;-78
2023/01/30 09:48:53;;;;;;;6.07;3.80;;;;;;;3.32;66.11;97243.72;10537666;28;20039;-78
2023/01/30 09:54:23;;;;;;;5.70;3.40;;;;;;;3.05;66.04;97246.91;10541531;28;20059;-77
2023/01/30 10:00:02;;;;;;;4.97;3.40;;;;;;;2.53;67.76;97240.97;10538250;28;20469;-78
2023/01/30 10:05:53;;;;;;;5.57;3.70;;;;;;;2.16;69.70;97234.19;10564714;28;20052;-77
2023/01/30 10:11:37;;;;;;;5.68;3.60;;;;;;;2.01;71.01;97223.13;10558916;28;20415;-77
2023/01/30 10:17:16;;;;;;;3.90;3.27;;;;;;;2.07;71.72;97220.22;10558593;28;20419;-78
2023/01/30 10:23:10;;;;;;;4.35;3.20;;;;;;;2.34;71.39;97202.03;10515727;28;20056;-78
2023/01/30 10:28:36;;;;;;;5.10;3.10;;;;;;;2.57;70.64;97208.25;10439910;28;20485;-77
2023/01/30 10:34:05;;;;;;;5.05;3.50;;;;;;;3.07;69.94;97191.94;10515648;28;20473;-78
2023/01/30 10:39:54;;;;;;;4.95;3.28;;;;;;;3.78;70.00;97216.63;10502356;28;20390;-78
2023/01/30 10:45:19;;;;;;;4.88;3.40;;;;;;;4.54;67.53;97201.47;10504989;28;20048;-78
2023/01/30 10:50:40;;;;;;;;;;;;;;;5.49;63.93;97196.53;10488662;28;20040;-78
2023/01/30 10:56:27;;;;;;;4.43;3.45;;;;;;;8.41;57.73;97199.63;10529087;28;19919;-78
2023/01/30 11:02:01;;;;;;;4.72;3.15;;;;;;;8.08;56.94;97202.22;10517802;28;20048;-78
2023/01/30 11:07:22;;;;;;;4.28;3.47;;;;;;;6.05;57.72;97166.19;10487672;28;20044;-77
2023/01/30 11:12:45;;;;;;;4.25;3.17;;;;;;;6.29;59.41;97179.13;10514994;28;20060;-78
2023/01/30 11:18:06;;;;;;;4.80;3.13;;;;;;;7.49;58.33;97178.69;10514677;28;20040;-78
2023/01/30 11:23:47;;;;;;;4.95;3.35;;;;;;;8.38;54.31;97178.53;10494924;28;20044;-79
2023/01/30 11:29:25;;;;;;;3.90;3.10;;;;;;;7.78;52.61;97175.84;10499402;28;20044;-78
2023/01/30 11:35:20;;;;;;;4.32;3.20;;;;;;;5.86;55.31;97139.88;10501373;28;20051;-78
2023/01/30 11:40:41;;;;;;;3.50;2.65;;;;;;;5.33;57.30;97160.03;10514944;28;20390;-79
2023/01/30 11:46:04;;;;;;;3.97;2.70;;;;;;;5.10;58.08;97147.19;10499829;28;20119;-78
2023/01/30 11:51:25;;;;;;;4.40;2.80;;;;;;;5.15;58.41;97126.84;10513339;28;20379;-77
2023/01/30 11:56:54;;;;;;;4.40;3.10;;;;;;;4.63;59.48;97134.47;10512894;28;20047;-78
2023/01/30 12:02:27;;;;;;;3.45;2.55;;;;;;;4.64;59.76;97126.94;10526231;28;20051;-77
2023/01/30 12:07:52;;;;;;;3.75;2.40;;;;;;;5.49;59.04;97100.34;10553809;28;20050;-77
2023/01/30 12:13:28;;;;;;;3.38;1.98;;;;;;;5.47;58.05;97106.47;10553257;28;20035;-77
2023/01/30 12:19:05;;;;;;;2.40;1.60;;;;;;;5.69;57.70;97104.69;10518197;28;20040;-77
2023/01/30 12:25:04;;;;;;;5.60;1.90;;;;;;;5.44;57.50;97099.34;10502611;28;20047;-78
2023/01/30 12:30:48;;;;;;;1.98;1.45;;;;;;;4.79;58.20;97105.34;10441659;28;20401;-77
2023/01/30 12:36:47;;;;;;;2.70;1.52;;;;;;;4.49;59.49;97120.25;10549531;28;20435;-76
2023/01/30 12:42:20;;;;;;;3.60;2.50;;;;;;;4.54;60.00;97132.38;10562790;28;20036;-77
2023/01/30 12:47:54;;;;;;;3.97;2.15;;;;;;;4.85;60.13;97132.75;10564229;28;20394;-78
2023/01/30 12:53:23;;;;;;;3.13;2.00;;;;;;;4.39;61.52;97149.09;10563638;28;20040;-77
2023/01/30 12:58:52;;;;;;;2.40;1.52;;;;;;;4.11;61.96;97136.47;10536007;28;20047;-77
2023/01/30 13:04:32;;;;;;;3.20;1.77;;;;;;;3.95;63.05;97144.13;10548650;28;20417;-77
2023/01/30 13:10:11;;;;;;;3.28;1.60;;;;;;;4.20;63.84;97133.06;10549507;28;20401;-77
2023/01/30 13:15:41;;;;;;;2.70;1.55;;;;;;;4.62;62.24;97124.72;10549256;28;20375;-78
2023/01/30 13:21:15;;;;;;;2.22;1.60;;;;;;;5.11;61.31;97111.97;10547613;28;20043;-78
2023/01/30 13:26:36;;;;;;;2.85;1.50;;;;;;;5.06;61.19;97110.19;10534579;28;20046;-78
2023/01/30 13:31:59;;;;;;;2.72;1.70;;;;;;;5.09;61.08;97123.59;10513048;28;20044;-78
2023/01/30 13:37:21;;;;;;;2.72;1.73;;;;;;;5.19;60.92;97115.34;10522967;28;20042;-79
2023/01/30 13:43:26;;;;;;;3.25;1.58;;;;;;;5.35;60.57;97149.84;10551892;28;20040;-78
2023/01/30 13:48:50;;;;;;;7.80;1.60;;;;;;;5.31;60.38;97132.94;10344969;28;20050;-78
2023/01/30 13:54:38;;;;;;;2.15;1.48;;;;;;;5.29;60.21;97124.44;10544940;28;20078;-78
2023/01/30 14:00:24;;;;;;;3.15;1.25;;;;;;;5.20;60.57;97122.34;10548717;28;20481;-79
2023/01/30 14:05:56;;;;;;;2.25;1.23;;;;;;;5.34;60.28;97133.81;10535450;28;20048;-77
2023/01/30 14:11:32;;;;;;;2.33;1.30;;;;;;;5.66;60.75;97133.53;10526791;28;20071;-78
2023/01/30 14:16:56;;;;;;;3.20;1.15;;;;;;;6.13;59.58;97128.03;10515558;28;20044;-78
2023/01/30 14:22:22;;;;;;;2.33;1.08;;;;;;;6.31;58.53;97143.97;10527262;28;20045;-78
2023/01/30 14:27:43;;;;;;;2.78;1.17;;;;;;;6.08;58.11;97143.63;10513949;28;21305;-78
2023/01/30 14:33:24;;;;;;;3.28;0.90;;;;;;;5.32;58.54;97144.72;10525336;28;20413;-78
2023/01/30 14:38:46;;;;;;;1.95;1.02;;;;;;;4.76;59.93;97153.50;10527919;28;20890;-78
2023/01/30 14:44:07;;;;;;;2.00;1.10;;;;;;;4.45;60.71;97177.97;10524927;28;20071;-78
2023/01/30 14:49:28;;;;;;;1.35;0.70;;;;;;;4.24;61.37;97172.78;10508207;28;20123;-77
2023/01/30 14:54:49;;;;;;;1.30;0.60;;;;;;;4.07;62.02;97183.81;10514287;28;20101;-77
2023/01/30 15:00:17;;;;;;;0.88;0.50;;;;;;;3.95;62.35;97196.59;10499082;28;20044;-78
2023/01/30 15:05:42;;;;;;;1.58;0.40;;;;;;;3.87;62.88;97196.69;10525675;28;20513;-78
2023/01/30 15:11:04;;;;;;;2.83;0.88;;;;;;;3.87;63.42;97188.41;10514972;28;20036;-77
2023/01/30 15:16:27;;;;;;;3.47;0.70;;;;;;;3.91;63.19;97188.00;10527104;28;20051;-79
2023/01/30 15:22:12;;;;;;;0.95;0.55;;;;;;;3.87;63.41;97191.16;10522612;28;20040;-77
2023/01/30 15:27:37;;;;;;;1.33;0.52;;;;;;;3.72;63.91;97191.25;10527419;28;20044;-78
2023/01/30 15:33:16;;;;;;;2.65;1.00;;;;;;;3.65;63.93;97200.28;10541646;28;20044;-78
2023/01/30 15:39:02;;;;;;;1.40;0.60;;;;;;;3.52;64.09;97198.53;10516257;28;20105;-77
2023/01/30 15:44:30;;;;;;;1.92;0.60;;;;;;;3.48;64.70;97212.00;10510056;28;20045;-77
2023/01/30 15:49:55;;;;;;;1.77;0.60;;;;;;;3.39;65.45;97187.75;10499519;28;20048;-76
2023/01/30 15:55:23;;;;;;;2.00;0.77;;;;;;;3.30;66.19;97185.59;10485247;28;20368;-76
2023/01/30 16:00:52;;;;;;;5.53;1.25;;;;;;;3.14;66.78;97190.44;10471237;28;20044;-76
2023/01/30 16:06:31;;;;;;;2.58;0.85;;;;;;;3.16;66.88;97187.84;10485151;28;20418;-76
2023/01/30 16:11:52;;;;;;;3.45;1.50;;;;;;;3.13;67.11;97189.72;10474876;28;20082;-76
2023/01/30 16:17:13;;;;;;;3.42;0.93;;;;;;;3.12;67.35;97188.25;10511503;28;20032;-76
2023/01/30 16:22:35;;;;;;;1.42;0.60;;;;;;;3.15;66.98;97181.59;10504528;28;20040;-77
2023/01/30 16:27:57;;;;;;;2.05;1.00;;;;;;;3.13;67.80;97211.78;10503522;28;20044;-77
2023/01/30 16:33:18;;;;;;;2.78;1.15;;;;;;;3.16;68.18;97216.16;10507961;28;20044;-75
2023/01/30 16:38:43;;;;;;;3.83;0.93;;;;;;;3.13;69.09;97228.31;10456591;28;20532;-76
2023/01/30 16:44:20;;;;;;;3.10;1.10;;;;;;;3.00;70.80;97236.09;10484069;28;20037;-77
2023/01/30 16:49:43;;;;;;;4.00;1.52;;;;;;;2.79;71.24;97233.56;10517027;28;20052;-75
2023/01/30 16:55:06;;;;;;;2.90;1.20;;;;;;;2.77;71.76;97238.91;10521343;28;20040;-76
2023/01/30 17:00:32;;;;;;;4.38;1.42;;;;;;;2.56;71.79;97239.84;10496945;28;20041;-77
2023/01/30 17:05:53;;;;;;;2.53;1.10;;;;;;;2.52;72.41;97238.75;10482772;28;20088;-76
2023/01/30 17:11:36;;;;;;;8.93;2.03;;;;;;;2.52;71.97;97242.25;10503233;28;20040;-77
2023/01/30 17:17:07;;;;;;;3.85;1.95;;;;;;;2.71;72.75;97261.16;10538944;28;20165;-78
2023/01/30 17:22:28;;;;;;;3.15;1.35;;;;;;;2.66;71.76;97258.56;10511755;28;20048;-76
2023/01/30 17:27:49;;;;;;;2.40;1.20;;;;;;;2.62;72.64;97258.97;10510633;28;20043;-77
2023/01/30 17:33:10;;;;;;;2.28;1.02;;;;;;;2.70;72.35;97269.94;10524056;28;20105;-77
2023/01/30 17:38:31;;;;;;;3.65;1.30;;;;;;;2.81;71.98;97270.31;10510493;28;20036;-77
2023/01/30 17:43:52;;;;;;;3.05;1.08;;;;;;;2.88;72.05;97266.78;10513692;28;20406;-76
2023/01/30 17:49:22;;;;;;;2.80;1.20;;;;;;;3.06;71.36;97262.16;10488440;28;20445;-77
2023/01/30 17:54:43;;;;;;;4.63;1.48;;;;;;;3.21;70.41;97274.47;10521828;28;20051;-78
2023/01/30 18:00:04;;;;;;;4.55;1.77;;;;;;;3.23;70.38;97280.88;10531637;28;20059;-79
2023/01/30 18:05:28;;;;;;;2.33;0.90;;;;;;;3.34;70.67;97290.78;10560424;28;20056;-78
2023/01/30 18:10:49;;;;;;;3.47;1.40;;;;;;;3.42;69.71;97308.78;10531153;28;20040;-76
2023/01/30 18:16:22;;;;;;;4.43;1.63;;;;;;;3.47;69.95;97315.38;10544946;28;20043;-77
2023/01/30 18:21:44;;;;;;;4.90;1.20;;;;;;;3.52;69.23;97310.94;10530888;28;20047;-78
2023/01/30 18:27:05;;;;;;;6.25;1.38;;;;;;;3.52;69.11;97314.44;10544544;28;20039;-77
2023/01/30 18:32:26;;;;;;;3.08;1.10;;;;;;;3.55;69.51;97301.53;10544589;28;20043;-77
2023/01/30 18:37:48;;;;;;;3.05;1.00;;;;;;;3.62;69.62;97300.78;10544831;28;20040;-78
2023/01/30 18:43:10;;;;;;;4.85;1.23;;;;;;;3.68;69.06;97309.59;10544707;28;20043;-77
2023/01/30 18:48:32;;;;;;;4.18;0.80;;;;;;;3.71;68.48;97319.53;10558021;28;20428;-76
2023/01/30 18:53:53;;;;;;;4.30;1.13;;;;;;;3.74;68.13;97330.16;10545009;28;20044;-80
2023/01/30 18:59:16;;;;;;;4.28;1.27;;;;;;;3.79;67.93;97344.34;10559063;28;20125;-78
2023/01/30 19:04:38;;;;;;;6.57;0.98;;;;;;;3.85;67.71;97356.63;10556774;28;20055;-78
2023/01/30 19:09:59;;;;;;;4.38;0.90;;;;;;;3.88;67.06;97357.56;10544586;28;20036;-79
2023/01/30 19:15:20;;;;;;;4.38;1.23;;;;;;;3.92;67.85;97352.38;10543319;28;20043;-78
2023/01/30 19:20:41;;;;;;;3.58;0.93;;;;;;;3.97;67.02;97365.97;10542579;28;20048;-78
2023/01/30 19:26:02;;;;;;;5.13;0.88;;;;;;;3.98;66.68;97366.72;10544142;28;20036;-77
2023/01/30 19:31:23;;;;;;;3.20;0.70;;;;;;;4.00;66.32;97380.69;10543076;28;20040;-78
2023/01/30 19:36:45;;;;;;;2.28;0.77;;;;;;;4.03;66.49;97390.63;10527947;28;20444;-78
2023/01/30 19:42:06;;;;;;;4.38;0.60;;;;;;;4.09;66.44;97402.19;10541600;28;20044;-78
2023/01/30 19:47:26;;;;;;;5.50;0.57;;;;;;;4.07;66.07;97404.78;10541518;28;20036;-78
2023/01/30 19:52:51;;;;;;;5.07;0.57;;;;;;;4.05;65.82;97448.78;10541053;28;20434;-76
2023/01/30 19:58:12;;;;;;;1.87;0.43;;;;;;;4.07;65.91;97446.22;10540999;28;20039;-78
2023/01/30 20:03:33;;;;;;;5.28;0.65;;;;;;;4.12;65.58;97425.19;10554423;28;20281;-77
2023/01/30 20:09:08;;;;;;;5.20;1.08;;;;;;;4.16;64.92;97456.69;10569118;28;20036;-76
2023/01/30 20:14:29;;;;;;;4.47;0.70;;;;;;;4.19;64.79;97454.84;10540551;28;20043;-77
2023/01/30 20:19:50;;;;;;;7.68;0.98;;;;;;;4.19;64.83;97454.84;10539970;28;20362;-77
2023/01/30 20:25:11;;;;;;;2.70;0.68;;;;;;;4.19;64.40;97480.44;10540237;28;20450;-77
2023/01/30 20:30:32;;;;;;;7.50;0.63;;;;;;;4.21;64.28;97474.34;10525598;28;20047;-77
2023/01/30 20:35:52;;;;;;;3.22;0.63;;;;;;;4.23;64.59;97483.53;10539614;28;20473;-77
2023/01/30 20:41:19;;;;;;;4.07;0.60;;;;;;;4.28;63.74;97492.94;10554172;28;20062;-77
2023/01/30 20:46:41;;;;;;;5.50;0.70;;;;;;;4.27;63.78;97499.75;10540468;28;20439;-77
2023/01/30 20:52:02;;;;;;;4.32;0.60;;;;;;;4.28;63.67;97521.28;10525195;28;20093;-77
2023/01/30 20:57:26;;;;;;;7.43;1.13;;;;;;;4.29;63.58;97522.75;10539613;28;20047;-77
2023/01/30 21:02:51;;;;;;;3.40;0.50;;;;;;;4.28;63.19;97542.66;10541132;28;20056;-77
2023/01/30 21:08:12;;;;;;;4.18;0.60;;;;;;;4.20;62.42;97548.19;10538011;28;20043;-77
2023/01/30 21:13:45;;;;;;;6.40;0.70;;;;;;;4.21;63.17;97555.19;10539031;28;20047;-77
2023/01/30 21:19:24;;;;;;;3.50;0.70;;;;;;;4.25;61.90;97572.16;10546410;28;20047;-77
2023/01/30 21:25:14;;;;;;;3.92;0.50;;;;;;;4.22;62.21;97581.53;10570762;28;20063;-78
2023/01/30 21:30:35;;;;;;;3.28;0.55;;;;;;;4.21;62.40;97590.38;10562220;28;20043;-77
2023/01/30 21:36:00;;;;;;;5.75;0.70;;;;;;;4.19;63.20;97588.19;10548650;28;20047;-77
2023/01/30 21:47:04;;;;;;;5.07;0.47;;;;;;;4.21;62.77;97599.41;10549312;28;20044;-77
2023/01/30 21:52:26;;;;;;;5.22;0.70;;;;;;;4.23;63.34;97624.44;10560428;28;20043;-77
2023/01/30 21:57:47;;;;;;;2.63;0.50;;;;;;;4.09;65.06;97637.00;10545866;28;20039;-76
2023/01/30 22:03:08;;;;;;;3.60;0.40;;;;;;;3.98;65.19;97631.84;10545782;28;20052;-76
2023/01/30 22:08:29;;;;;;;3.03;0.50;;;;;;;3.96;65.40;97617.88;10559962;28;20040;-76
2023/01/30 22:13:50;;;;;;;2.33;0.38;;;;;;;3.90;65.21;97611.78;10545129;28;20396;-76
2023/01/30 22:19:13;;;;;;;2.80;0.38;;;;;;;3.79;64.96;97625.97;10545872;28;20042;-76
2023/01/30 22:24:34;;;;;;;4.07;0.60;;;;;;;3.82;65.37;97617.31;10545178;28;20039;-77
2023/01/30 22:29:55;;;;;;;2.30;0.40;;;;;;;3.81;65.04;97634.41;10529542;28;20048;-77
2023/01/30 22:35:16;;;;;;;3.05;0.32;;;;;;;3.84;65.30;97647.84;10530273;28;20374;-77
2023/01/30 22:40:38;;;;;;;4.38;0.60;;;;;;;3.89;65.42;97646.94;10544322;28;20040;-76
2023/01/30 22:46:04;;;;;;;2.25;0.38;;;;;;;3.89;65.22;97646.22;10530623;28;20423;-78
2023/01/30 22:51:29;;;;;;;3.03;0.43;;;;;;;3.91;65.49;97643.63;10545332;28;20040;-77
2023/01/30 22:56:51;;;;;;;4.50;0.88;;;;;;;3.96;65.49;97654.50;10558694;28;20050;-76
2023/01/30 23:02:12;;;;;;;6.07;0.60;;;;;;;3.97;65.37;97649.72;10543623;28;20481;-77
2023/01/30 23:07:33;;;;;;;3.97;0.52;;;;;;;3.94;65.52;97664.59;10542869;28;20540;-76
2023/01/30 23:13:07;;;;;;;2.65;0.30;;;;;;;3.91;65.29;97657.44;10543444;28;20039;-77
2023/01/30 23:24:11;;;;;;;3.55;0.50;;;;;;;3.95;64.96;97679.88;10547676;28;20442;-77
2023/01/30 23:29:33;;;;;;;5.20;0.40;;;;;;;3.94;64.91;97703.28;10547948;28;20039;-76
2023/01/30 23:34:54;;;;;;;3.63;0.60;;;;;;;3.95;65.73;97688.91;10520610;28;20401;-77
2023/01/30 23:40:15;;;;;;;4.75;0.40;;;;;;;3.88;65.71;97705.50;10515410;28;20032;-76
2023/01/30 23:45:39;;;;;;;3.63;0.43;;;;;;;3.60;66.58;97729.19;10523900;28;20453;-77
2023/01/30 23:51:01;;;;;;;1.33;0.35;;;;;;;3.51;66.73;97729.72;10565586;28;20044;-77
2023/01/30 23:56:23;;;;;;;1.33;0.32;;;;;;;3.53;67.24;97732.66;10552359;28;20043;-77
